»·PEaware :: N314PW KSNA-KSNA

N314PW :: KSNA-KSNA

FLIGHT INFORMATION

Flight Status: Arrived
Operator: Privately registered:
United States
More flights under this callsign
Pilot: Todd P. (5750)
Aircraft: PIPER PA-28R-201 ARROW
(P28R)
More flights by this aircraft type
Origin: KSNA John Wayne-Orange Co
United States
Destination: KSNA John Wayne-Orange Co
United States
More flights between these airports :: More routes between these airports
Route: +SLI
File this flight plan on PilotEdge
Remarks: ILS20R
Altitude:
(Current/Filed)
3,000ft
Speed:
(Current/Filed)
125kts
Departed: 10-Apr-16 09:12 AM
Arrived: 10-Apr-16 09:44 AM
Distance/Time
Traveled:
0nm/0:32
Distance/Time
To Go:
Arrived

Flight Plot

Page will automatically refresh every two minutes.


Map Options




Map Legend


Flown Route
Filed Route
Departure Airport
Arrival Airport
Navaid (VOR, NDB)
Fix

Horizontal Profiles

Position Reports

Time Latitude Longitude Heading Altitude Ground
Speed
10-Apr-16 08:43 33.670897 -117.867586 32 60ft 0kts
10-Apr-16 08:44 33.670897 -117.867586 32 60ft 0kts
10-Apr-16 08:45 33.670897 -117.867586 32 60ft 0kts
10-Apr-16 08:46 33.670897 -117.867586 32 60ft 0kts
10-Apr-16 08:47 33.670897 -117.867586 32 60ft 0kts
10-Apr-16 08:48 33.670897 -117.867586 32 60ft 0kts
10-Apr-16 08:49 33.670897 -117.867586 32 60ft 0kts
10-Apr-16 08:50 33.670897 -117.867586 32 60ft 0kts
10-Apr-16 08:51 33.670897 -117.867586 32 60ft 0kts
10-Apr-16 08:52 33.670897 -117.867586 32 60ft 0kts
10-Apr-16 08:53 33.670897 -117.867586 32 60ft 0kts
10-Apr-16 08:54 33.673127 -117.867288 43 60ft 16kts
10-Apr-16 08:55 33.676506 -117.865583 25 60ft 14kts
10-Apr-16 08:56 33.680015 -117.863683 320 60ft 0kts
10-Apr-16 08:57 33.680015 -117.863683 320 60ft 0kts
10-Apr-16 08:58 33.680015 -117.863683 320 60ft 0kts
10-Apr-16 08:59 33.680015 -117.863683 320 60ft 0kts
10-Apr-16 09:00 33.680015 -117.863683 320 60ft 0kts
10-Apr-16 09:00 33.680015 -117.863683 320 60ft 0kts
10-Apr-16 09:01 33.680015 -117.863683 320 60ft 0kts
10-Apr-16 09:02 33.680015 -117.863683 320 60ft 0kts
10-Apr-16 09:03 33.671798 -117.869560 212 267ft 89kts
10-Apr-16 09:04 33.658412 -117.894784 235 1563ft 97kts
10-Apr-16 09:05 33.644503 -117.919681 232 2861ft 89kts
10-Apr-16 09:06 33.624363 -117.951518 232 3094ft 145kts
10-Apr-16 09:07 33.599856 -117.989711 238 3088ft 144kts
10-Apr-16 09:08 33.623346 -118.016775 342 3174ft 146kts
10-Apr-16 09:09 33.657575 -118.025478 353 4061ft 134kts
10-Apr-16 09:10 33.697809 -118.030663 353 4029ft 159kts
10-Apr-16 09:11 33.739730 -118.040710 341 4024ft 165kts
10-Apr-16 09:12 33.780010 -118.052216 39 4037ft 165kts
10-Apr-16 09:13 33.799802 -118.013493 64 4034ft 166kts
10-Apr-16 09:14 33.817807 -117.968488 64 4030ft 155kts
10-Apr-16 09:15 33.835310 -117.925215 65 4033ft 149kts
10-Apr-16 09:16 33.852525 -117.882294 64 4034ft 148kts
10-Apr-16 09:17 33.869651 -117.839614 64 4034ft 148kts
10-Apr-16 09:18 33.886876 -117.796761 64 4034ft 149kts
10-Apr-16 09:19 33.904236 -117.753215 64 4034ft 149kts
10-Apr-16 09:20 33.924947 -117.713229 29 4035ft 148kts
10-Apr-16 09:21 33.953630 -117.694796 28 4028ft 130kts
10-Apr-16 09:22 33.970031 -117.710919 244 4030ft 114kts
10-Apr-16 09:23 33.947102 -117.716611 174 4034ft 109kts
10-Apr-16 09:24 33.919969 -117.714104 196 4031ft 107kts
10-Apr-16 09:25 33.895997 -117.728835 207 3828ft 122kts
10-Apr-16 09:26 33.868571 -117.746183 208 3538ft 127kts
10-Apr-16 09:27 33.842722 -117.762640 208 3498ft 111kts
10-Apr-16 09:28 33.817995 -117.778344 207 3140ft 111kts
10-Apr-16 09:29 33.794151 -117.793579 213 2810ft 116kts
10-Apr-16 09:30 33.770990 -117.808247 200 2388ft 87kts
10-Apr-16 09:31 33.750796 -117.821484 208 1720ft 87kts
10-Apr-16 09:32 33.731122 -117.833414 210 1260ft 89kts
10-Apr-16 09:34 33.709238 -117.847474 211 788ft 88kts
10-Apr-16 09:35 33.688922 -117.860780 200 301ft 85kts
10-Apr-16 09:36 33.675872 -117.869565 295 60ft 13kts

Navigation Log

Ident Type
Flight plan parsing failed, navigation log unavailable